Buoy 41997

sailwx.info

Track history (hours):
 
Tides and Currents Weather Stations Pressure Air Temp Water Temp Dewpoint Dewpoint Depression Visibility Wind Speed Wind Dir Waves Ship Positions

Drifting buoy 41997

Last reported at 2014-Sep-02 22:45 UTC. Time now 2014-Sep-03 04:49 UTC.
Position N 29°54' W 032°14'.

Water temperature 27.4 ° C

Date/timePositionNaut miles runAvg speedWind from/ knotsBaromVisibWave heightAir tempDewpointWater temp
2014-Sep-02 22:45N 29°54' W 032°14'2 7.1 27.4
2014-Sep-02 22:30N 29°56' W 032°15'0 0.0 27.5
2014-Sep-02 21:45N 29°56' W 032°15'1 0.8 27.5
2014-Sep-02 20:30N 29°57' W 032°15'0 0.0 27.6
2014-Sep-02 20:15N 29°57' W 032°15'0 0.0 27.7
2014-Sep-02 19:45N 29°57' W 032°15'0 0.0 27.7
2014-Sep-02 19:30N 29°57' W 032°15'1 0.4 27.8
2014-Sep-02 18:00N 29°57' W 032°16'1 3.0 27.9
2014-Sep-02 17:45N 29°58' W 032°16'0 0.0 27.9
2014-Sep-02 16:15N 29°58' W 032°16'0 0.0 27.8
2014-Sep-02 15:45N 29°58' W 032°16'2 1.0 27.8
2014-Sep-02 14:00N 29°59' W 032°18'0 0.0 27.7
2014-Sep-02 12:15N 29°59' W 032°18'0 1.5 27.5
2014-Sep-02 12:00N 29°59' W 032°18'1 1.4 27.5
2014-Sep-02 11:15N 29°60' W 032°18'2 2.7 27.4
2014-Sep-02 10:30N 29°59' W 032°20'1 0.6 27.4
2014-Sep-02 08:30N 29°58' W 032°19'0 0.0 27.4
2014-Sep-02 08:15N 29°58' W 032°19'1 0.5 27.4
2014-Sep-02 06:45N 29°57' W 032°19'0 0.0 27.5
2014-Sep-02 06:30N 29°57' W 032°19'0 0.1 27.5
2014-Sep-02 04:30N 29°57' W 032°19'1 3.8 27.5
2014-Sep-02 04:15N 29°57' W 032°18'0 0.0 27.5
2014-Sep-02 02:45N 29°57' W 032°18'0 0.1 27.6
2014-Sep-01 23:45N 29°57' W 032°18'1 0.7 27.8
2014-Sep-01 23:00N 29°58' W 032°18'0 1.9 27.8
2014-Sep-01 22:45N 29°58' W 032°17'0 0.1 27.9
2014-Sep-01 22:15N 29°58' W 032°17'1 3.1 28.0
2014-Sep-01 22:00N 29°59' W 032°17'1 0.6 28.0
2014-Sep-01 21:00N 29°59' W 032°18'0 0.0 28.2
2014-Sep-01 20:45N 29°59' W 032°18'0 0.2 28.2
2014-Sep-01 20:00N 29°59' W 032°17'0 0.0 28.4
2014-Sep-01 19:45N 29°59' W 032°17'0 0.0 28.4
2014-Sep-01 19:15N 29°59' W 032°17'1 0.8 28.6
2014-Sep-01 18:15N 29°60' W 032°18'1 3.1 28.6
2014-Sep-01 18:00N 29°59' W 032°17'1 0.5 28.7
2014-Sep-01 16:30N 29°60' W 032°18'0 0.0 28.7
2014-Sep-01 16:00N 29°60' W 032°18'0 0.0 28.8
2014-Sep-01 15:45N 29°60' W 032°18'1 0.4 28.6
2014-Sep-01 13:15N 30°00' W 032°19'1 0.7 28.1
2014-Sep-01 11:45N 30°01' W 032°19'2 1.7 27.7
2014-Sep-01 10:45N 29°60' W 032°20'0 0.0 27.5
2014-Sep-01 08:45N 29°60' W 032°20'0 1.8 27.4
2014-Sep-01 08:30N 29°60' W 032°20'1 0.4 27.4
2014-Sep-01 07:00N 29°60' W 032°19'1 4.3 27.4
2014-Sep-01 06:45N 29°59' W 032°20'0 0.0 27.4
2014-Sep-01 05:15N 29°59' W 032°20'1 1.0 27.5
2014-Sep-01 04:30N 29°59' W 032°19'0 0.0 27.6
2014-Sep-01 03:00N 29°59' W 032°19'1 3.1 27.7
2014-Sep-01 02:45N 29°58' W 032°18'0 0.0 27.7
2014-Sep-01 00:15N 29°58' W 032°18'0 0.0 27.9
2014-Sep-01 00:00N 29°58' W 032°18'1 1.2 27.9
2014-Aug-31 23:15N 29°59' W 032°17'1 1.1 27.9
2014-Aug-31 22:30N 29°60' W 032°17'0 0.0 27.9
2014-Aug-31 22:15N 29°60' W 032°17'1 0.4 28.0
2014-Aug-31 20:15N 30°00' W 032°17'1 3.1 28.2
2014-Aug-31 20:00N 29°60' W 032°17'1 3.1 28.3
2014-Aug-31 19:45N 30°00' W 032°17'0 0.0 28.3
2014-Aug-31 18:45N 30°00' W 032°17'0 0.2 28.4
2014-Aug-31 18:30N 30°00' W 032°17'0 0.0 28.5
2014-Aug-31 18:15N 30°00' W 032°17'0 0.3 28.5
2014-Aug-31 16:45N 30°01' W 032°17'0 0.0 28.3
2014-Aug-31 16:15N 30°01' W 032°17'0 0.0 28.3
2014-Aug-31 16:00N 30°01' W 032°17'1 0.6 28.2
2014-Aug-31 14:30N 30°01' W 032°18'0 0.1 28.1
2014-Aug-31 13:00N 30°01' W 032°19'0 0.0 27.9
2014-Aug-31 12:45N 30°01' W 032°19'0 0.5 27.9
2014-Aug-31 12:00N 30°01' W 032°18'1 0.9 27.7
2014-Aug-31 11:15N 30°00' W 032°19'0 0.0 27.6
2014-Aug-31 09:15N 30°00' W 032°19'0 1.3 27.5
2014-Aug-31 09:00N 29°60' W 032°19'0 0.0 27.5
2014-Aug-31 08:45N 29°60' W 032°19'0 0.0 27.5
2014-Aug-31 07:30N 29°60' W 032°19'0 0.3 27.6
2014-Aug-31 07:15N 29°60' W 032°19'1 3.4 27.6
2014-Aug-31 07:00N 29°59' W 032°18'0 0.0 27.6
2014-Aug-31 05:30N 29°59' W 032°18'0 0.0 27.8
2014-Aug-31 05:15N 29°59' W 032°18'1 2.3 27.8
2014-Aug-31 04:45N 29°59' W 032°17'0 0.0 27.8
2014-Aug-31 03:00N 29°59' W 032°17'0 0.0 28.1
2014-Aug-31 00:30N 29°59' W 032°17'0 0.0 28.4
2014-Aug-31 00:15N 29°59' W 032°17'1 2.5 28.4
2014-Aug-30 23:45N 29°59' W 032°16'1 2.4 28.5
2014-Aug-30 23:30N 29°60' W 032°15'1 1.2 28.6
2014-Aug-30 22:45N 30°01' W 032°15'1 0.3 28.7
2014-Aug-30 20:30N 30°01' W 032°15'0 0.0 28.9
2014-Aug-30 20:15N 30°01' W 032°15'0 0.3 29.0
2014-Aug-30 19:00N 30°01' W 032°15'0 0.0 29.3
2014-Aug-30 18:45N 30°01' W 032°15'0 0.0 29.4
2014-Aug-30 18:30N 30°01' W 032°15'0 0.4 29.4
2014-Aug-30 17:15N 30°01' W 032°16'1 3.1 29.4
2014-Aug-30 17:00N 30°01' W 032°17'1 3.1 29.4
2014-Aug-30 16:45N 30°01' W 032°16'1 1.6 29.4
2014-Aug-30 16:15N 30°01' W 032°17'0 0.1 29.5
2014-Aug-30 14:45N 30°01' W 032°17'0 0.0 29.0
2014-Aug-30 14:30N 30°01' W 032°17'1 0.4 28.8
2014-Aug-30 13:00N 30°01' W 032°16'0 0.3 27.8
2014-Aug-30 12:30N 30°01' W 032°16'1 1.1 27.6
2014-Aug-30 11:30N 30°00' W 032°15'0 0.0 27.2
2014-Aug-30 08:00N 30°00' W 032°15'0 0.0 27.2
2014-Aug-30 07:45N 30°00' W 032°15'1 1.7 27.2
2014-Aug-30 07:15N 29°59' W 032°15'0 0.0 27.2
2014-Aug-30 06:30N 29°59' W 032°15'0 0.0 27.3
2014-Aug-30 06:15N 29°59' W 032°15'1 2.3 27.4
2014-Aug-30 06:00N 29°60' W 032°15'0 0.0 27.4
2014-Aug-30 05:30N 29°60' W 032°15'0 0.0 27.4
2014-Aug-30 05:00N 29°60' W 032°15'2 6.8 27.4
2014-Aug-30 04:45N 29°59' W 032°13'0 0.0 27.4
2014-Aug-30 03:15N 29°59' W 032°13'0 0.0 27.6
2014-Aug-30 00:00N 29°59' W 032°13'0 0.0 27.9
2014-Aug-29 23:15N 29°59' W 032°13'1 4.1 27.9
2014-Aug-29 23:00N 29°60' W 032°12'0 1.0 27.9
2014-Aug-29 22:30N 30°00' W 032°12'0 0.0 27.9
2014-Aug-29 22:15N 30°00' W 032°12'0 0.0 27.9
2014-Aug-29 20:45N 30°00' W 032°12'0 0.1 28.1
2014-Aug-29 19:30N 30°00' W 032°13'0 0.3 28.3
2014-Aug-29 19:15N 30°00' W 032°13'1 1.5 28.3
2014-Aug-29 18:45N 30°01' W 032°13'0 0.0 28.3
2014-Aug-29 17:30N 30°01' W 032°13'0 0.0 28.5
2014-Aug-29 17:00N 30°01' W 032°13'0 0.4 28.4
2014-Aug-29 16:30N 30°01' W 032°13'1 0.6 28.4
2014-Aug-29 14:45N 30°01' W 032°15'1 0.7 28.2
2014-Aug-29 12:45N 29°60' W 032°15'0 0.0 27.5
2014-Aug-29 12:00N 29°60' W 032°15'0 0.0 27.3
2014-Aug-29 11:45N 29°60' W 032°15'0 0.0 27.2
2014-Aug-29 11:00N 29°60' W 032°15'0 0.0 27.0
2014-Aug-29 08:45N 29°60' W 032°15'1 0.8 26.9
2014-Aug-29 08:00N 29°60' W 032°15'0 0.4 27.0
2014-Aug-29 07:30N 29°60' W 032°15'0 1.2 27.0
2014-Aug-29 07:15N 29°60' W 032°14'0 0.0 27.0
2014-Aug-29 07:00N 29°60' W 032°14'0 0.8 27.0
2014-Aug-29 06:30N 29°60' W 032°15'0 0.0 27.1
2014-Aug-29 06:15N 29°60' W 032°15'0 0.0 27.1
2014-Aug-29 05:45N 29°60' W 032°15'0 0.0 27.1
2014-Aug-29 05:15N 29°60' W 032°15'1 2.2 27.1
2014-Aug-29 05:00N 29°59' W 032°15'1 0.8 27.1
2014-Aug-29 03:30N 29°58' W 032°14'0 0.0 27.2
2014-Aug-29 03:15N 29°58' W 032°14'0 0.0 27.2
2014-Aug-28 23:30N 29°58' W 032°13'1 1.1 27.4
2014-Aug-28 22:45N 29°59' W 032°13'0 0.0 27.4
2014-Aug-28 22:30N 29°59' W 032°13'1 1.9 27.4
2014-Aug-28 21:45N 30°00' W 032°12'1 0.5 27.5
2014-Aug-28 19:45N 30°01' W 032°13'0 0.0 27.9
2014-Aug-28 19:00N 30°01' W 032°13'0 0.0 28.1
2014-Aug-28 18:00N 30°01' W 032°13'0 0.2 28.4
2014-Aug-28 17:30N 30°01' W 032°13'0 1.8 28.4
2014-Aug-28 17:15N 30°01' W 032°13'0 0.4 28.3
2014-Aug-28 16:45N 30°01' W 032°13'0 0.0 28.3
2014-Aug-28 16:30N 30°01' W 032°13'1 0.8 28.2
2014-Aug-28 15:00N 30°01' W 032°15'0 0.1 28.2
2014-Aug-28 13:15N 30°01' W 032°14'0 0.5 28.1
2014-Aug-28 12:15N 30°01' W 032°14'0 0.0 27.7
2014-Aug-28 12:00N 30°01' W 032°14'1 1.2 27.5
2014-Aug-28 11:30N 30°01' W 032°14'0 0.0 27.3
2014-Aug-28 11:15N 30°01' W 032°14'1 2.0 27.3
2014-Aug-28 10:30N 30°00' W 032°15'0 0.0 27.2
2014-Aug-28 09:15N 30°00' W 032°15'0 0.0 27.1
2014-Aug-28 09:00N 30°00' W 032°15'0 1.0 27.1
2014-Aug-28 08:30N 30°00' W 032°15'0 0.0 27.1
2014-Aug-28 07:45N 30°00' W 032°15'0 1.2 27.1
2014-Aug-28 07:30N 30°00' W 032°15'0 0.8 27.1
2014-Aug-28 07:15N 30°00' W 032°15'0 0.4 27.2
2014-Aug-28 06:45N 30°00' W 032°15'0 0.5 27.2
2014-Aug-28 06:00N 29°60' W 032°15'1 0.7 27.2
2014-Aug-28 05:15N 29°59' W 032°15'0 0.1 27.2
2014-Aug-28 03:45N 29°60' W 032°15'2 8.6 27.2
2014-Aug-28 03:30N 29°58' W 032°14'0 0.0 27.2
2014-Aug-27 23:45N 29°58' W 032°14'1 1.9 27.3
2014-Aug-27 23:00N 29°58' W 032°12'1 1.5 27.3
2014-Aug-27 22:15N 29°59' W 032°12'0 0.0 27.3
2014-Aug-27 22:00N 29°59' W 032°12'1 0.5 27.4
2014-Aug-27 20:15N 29°60' W 032°12'0 0.0 27.6
2014-Aug-27 19:15N 29°60' W 032°12'0 0.0 27.8
2014-Aug-27 18:30N 29°60' W 032°12'0 0.1 27.7
2014-Aug-27 17:30N 29°60' W 032°12'1 1.0 27.6
2014-Aug-27 17:00N 30°00' W 032°12'0 0.0 27.6
2014-Aug-27 16:45N 30°00' W 032°12'1 0.6 27.6
2014-Aug-27 15:15N 29°60' W 032°12'0 0.0 27.3
2014-Aug-27 15:00N 29°60' W 032°12'1 0.5 27.3
2014-Aug-27 12:30N 29°59' W 032°13'1 0.7 26.9
2014-Aug-27 11:45N 29°58' W 032°13'1 1.1 26.8
2014-Aug-27 11:00N 29°58' W 032°12'0 0.0 26.7
2014-Aug-27 10:45N 29°58' W 032°12'0 0.0 26.7
2014-Aug-27 08:00N 29°58' W 032°12'0 0.9 26.5
2014-Aug-27 07:45N 29°58' W 032°12'0 0.0 26.5
2014-Aug-27 07:15N 29°58' W 032°12'0 0.5 26.5
2014-Aug-27 06:15N 29°58' W 032°11'0 1.9 26.5
2014-Aug-27 06:00N 29°58' W 032°11'0 0.1 26.5
2014-Aug-27 05:30N 29°58' W 032°11'0 0.0 26.6
2014-Aug-27 04:00N 29°58' W 032°11'0 1.1 26.6
2014-Aug-27 03:45N 29°58' W 032°11'2 0.5 26.6
2014-Aug-27 00:15N 29°57' W 032°09'0 0.0 26.7
2014-Aug-27 00:00N 29°57' W 032°09'1 1.4 26.7
2014-Aug-26 23:30N 29°57' W 032°08'0 0.6 26.7
2014-Aug-26 23:15N 29°57' W 032°08'1 1.8 26.7
2014-Aug-26 22:30N 29°58' W 032°07'1 0.9 26.7
2014-Aug-26 20:45N 29°59' W 032°05'0 0.0 26.8
2014-Aug-26 19:15N 29°59' W 032°05'1 3.2 27.1
2014-Aug-26 19:00N 29°59' W 032°06'0 0.0 27.1
2014-Aug-26 18:45N 29°59' W 032°06'0 0.0 27.1
2014-Aug-26 17:45N 29°59' W 032°06'0 0.0 27.2
2014-Aug-26 17:30N 29°59' W 032°06'1 0.3 27.2
2014-Aug-26 15:30N 29°60' W 032°06'0 0.0 27.0
2014-Aug-26 15:15N 29°60' W 032°06'0 0.1 27.0
2014-Aug-26 12:45N 29°60' W 032°06'0 0.0 26.5
2014-Aug-26 12:15N 29°60' W 032°06'0 1.1 26.5
2014-Aug-26 12:00N 29°60' W 032°05'1 1.1 26.4
2014-Aug-26 11:15N 29°59' W 032°05'0 0.0 26.4
2014-Aug-26 11:00N 29°59' W 032°05'0 0.0 26.4
2014-Aug-26 08:30N 29°59' W 032°05'1 0.7 26.4
2014-Aug-26 07:45N 29°60' W 032°04'0 1.4 26.4
2014-Aug-26 07:30N 30°00' W 032°04'0 0.0 26.4
2014-Aug-26 07:00N 30°00' W 032°04'0 0.0 26.4
2014-Aug-26 06:45N 30°00' W 032°04'0 1.8 26.4
2014-Aug-26 06:30N 30°00' W 032°04'1 3.3 26.4
2014-Aug-26 06:15N 30°01' W 032°03'0 0.0 26.4
2014-Aug-26 05:45N 30°01' W 032°03'0 0.0 26.4
2014-Aug-26 05:30N 30°01' W 032°03'0 0.2 26.4
2014-Aug-26 04:00N 30°01' W 032°02'0 0.0 26.5
2014-Aug-26 00:30N 30°01' W 032°02'0 0.3 26.6
2014-Aug-25 23:45N 30°01' W 032°02'0 0.0 26.6
2014-Aug-25 23:00N 30°01' W 032°02'1 5.2 26.7
2014-Aug-25 22:45N 30°01' W 032°01'0 0.0 26.7
2014-Aug-25 22:00N 30°01' W 032°01'1 0.3 26.7
2014-Aug-25 19:45N 30°01' W 031°60'0 0.0 26.9
2014-Aug-25 19:30N 30°01' W 031°60'0 0.0 26.9
2014-Aug-25 19:15N 30°01' W 031°60'0 0.0 26.9
2014-Aug-25 18:00N 30°01' W 031°60'0 0.2 26.9
2014-Aug-25 17:45N 30°01' W 031°60'0 0.0 26.9
2014-Aug-25 17:30N 30°01' W 031°60'0 1.4 26.9
2014-Aug-25 17:15N 30°02' W 031°60'0 0.0 26.9
2014-Aug-25 16:15N 30°02' W 031°60'0 0.0 26.9
2014-Aug-25 15:30N 30°02' W 031°60'1 0.4 26.8
2014-Aug-25 12:30N 30°01' W 031°58'2 1.7 26.4
2014-Aug-25 11:30N 29°59' W 031°58'0 0.0 26.4
2014-Aug-25 09:00N 29°59' W 031°58'1 1.2 26.4
2014-Aug-25 08:15N 30°00' W 031°57'0 0.0 26.3
2014-Aug-25 08:00N 30°00' W 031°57'0 0.0 26.4
2014-Aug-25 07:30N 30°00' W 031°57'0 0.0 26.4
2014-Aug-25 07:15N 30°00' W 031°57'1 2.0 26.4
2014-Aug-25 06:30N 30°01' W 031°56'0 0.0 26.4
2014-Aug-25 06:15N 30°01' W 031°56'0 0.3 26.4
2014-Aug-25 06:00N 30°01' W 031°56'0 0.0 26.4
2014-Aug-25 05:45N 30°01' W 031°56'1 0.9 26.4
2014-Aug-25 04:15N 30°01' W 031°54'0 0.0 26.4
2014-Aug-25 04:00N 30°01' W 031°54'0 0.0 26.4
2014-Aug-25 00:45N 30°01' W 031°54'0 0.0 26.5
2014-Aug-25 00:00N 30°01' W 031°54'0 0.0 26.5
2014-Aug-24 23:15N 30°01' W 031°54'0 0.0 26.5
2014-Aug-24 23:00N 30°01' W 031°54'0 0.0 26.5
2014-Aug-24 22:30N 30°01' W 031°54'0 0.0 26.5
2014-Aug-24 21:45N 30°01' W 031°54'0 1.2 26.5
2014-Aug-24 21:30N 30°01' W 031°54'0 0.0 26.5
2014-Aug-24 20:00N 30°01' W 031°54'0 0.0 26.6
2014-Aug-24 19:45N 30°01' W 031°54'0 0.0 26.6
2014-Aug-24 18:15N 30°01' W 031°54'0 0.5 26.7
2014-Aug-24 18:00N 30°01' W 031°54'0 0.3 26.7
2014-Aug-24 16:30N 30°02' W 031°53'0 0.0 26.8
2014-Aug-24 16:15N 30°02' W 031°53'0 0.0 26.8
2014-Aug-24 15:45N 30°02' W 031°53'0 0.0 26.7
2014-Aug-24 15:30N 30°02' W 031°53'0 0.1 26.7
2014-Aug-24 12:45N 30°01' W 031°53'1 1.5 26.6
2014-Aug-24 12:00N 30°00' W 031°53'0 0.0 26.5
2014-Aug-24 11:45N 30°00' W 031°53'0 0.0 26.5
2014-Aug-24 11:00N 30°00' W 031°53'1 0.8 26.5
2014-Aug-24 10:15N 30°00' W 031°52'0 0.2 26.5
2014-Aug-24 08:15N 30°00' W 031°52'0 1.5 26.5
2014-Aug-24 08:00N 30°00' W 031°52'0 0.0 26.5
2014-Aug-24 07:45N 30°00' W 031°52'1 1.1 26.5
2014-Aug-24 06:45N 30°01' W 031°51'0 0.0 26.5
2014-Aug-24 06:30N 30°01' W 031°51'0 0.0 26.5
2014-Aug-24 05:00N 30°01' W 031°51'0 0.2 26.5
2014-Aug-24 04:30N 30°01' W 031°51'1 3.9 26.5
2014-Aug-24 04:15N 30°01' W 031°50'0 0.0 26.5
2014-Aug-24 02:45N 30°01' W 031°50'0 0.0 26.5
2014-Aug-24 02:30N 30°01' W 031°50'0 0.1 26.5
2014-Aug-23 22:45N 30°01' W 031°50'   26.6
Track history (hours):
 
Tides and Currents Weather Stations Pressure Air Temp Water Temp Dewpoint Dewpoint Depression Visibility Wind Speed Wind Dir Waves Ship Positions

Drifting buoy 41997

Last reported at 2014-Sep-02 22:45 UTC. Time now 2014-Sep-03 04:49 UTC.
Position N 29°54' W 032°14'.

Water temperature 27.4 ° C

Date/timePositionNaut miles runAvg speedWind from/ knotsBaromVisibWave heightAir tempDewpointWater temp
2014-Sep-02 22:45N 29°54' W 032°14'2 7.1 27.4
2014-Sep-02 22:30N 29°56' W 032°15'0 0.0 27.5
2014-Sep-02 21:45N 29°56' W 032°15'1 0.8 27.5
2014-Sep-02 20:30N 29°57' W 032°15'0 0.0 27.6
2014-Sep-02 20:15N 29°57' W 032°15'0 0.0 27.7
2014-Sep-02 19:45N 29°57' W 032°15'0 0.0 27.7
2014-Sep-02 19:30N 29°57' W 032°15'1 0.4 27.8
2014-Sep-02 18:00N 29°57' W 032°16'1 3.0 27.9
2014-Sep-02 17:45N 29°58' W 032°16'0 0.0 27.9
2014-Sep-02 16:15N 29°58' W 032°16'0 0.0 27.8
2014-Sep-02 15:45N 29°58' W 032°16'2 1.0 27.8
2014-Sep-02 14:00N 29°59' W 032°18'0 0.0 27.7
2014-Sep-02 12:15N 29°59' W 032°18'0 1.5 27.5
2014-Sep-02 12:00N 29°59' W 032°18'1 1.4 27.5
2014-Sep-02 11:15N 29°60' W 032°18'2 2.7 27.4
2014-Sep-02 10:30N 29°59' W 032°20'1 0.6 27.4
2014-Sep-02 08:30N 29°58' W 032°19'0 0.0 27.4
2014-Sep-02 08:15N 29°58' W 032°19'1 0.5 27.4
2014-Sep-02 06:45N 29°57' W 032°19'0 0.0 27.5
2014-Sep-02 06:30N 29°57' W 032°19'0 0.1 27.5
2014-Sep-02 04:30N 29°57' W 032°19'1 3.8 27.5
2014-Sep-02 04:15N 29°57' W 032°18'0 0.0 27.5
2014-Sep-02 02:45N 29°57' W 032°18'0 0.1 27.6
2014-Sep-01 23:45N 29°57' W 032°18'1 0.7 27.8
2014-Sep-01 23:00N 29°58' W 032°18'0 1.9 27.8
2014-Sep-01 22:45N 29°58' W 032°17'0 0.1 27.9
2014-Sep-01 22:15N 29°58' W 032°17'1 3.1 28.0
2014-Sep-01 22:00N 29°59' W 032°17'1 0.6 28.0
2014-Sep-01 21:00N 29°59' W 032°18'0 0.0 28.2
2014-Sep-01 20:45N 29°59' W 032°18'0 0.2 28.2
2014-Sep-01 20:00N 29°59' W 032°17'0 0.0 28.4
2014-Sep-01 19:45N 29°59' W 032°17'0 0.0 28.4
2014-Sep-01 19:15N 29°59' W 032°17'1 0.8 28.6
2014-Sep-01 18:15N 29°60' W 032°18'1 3.1 28.6
2014-Sep-01 18:00N 29°59' W 032°17'1 0.5 28.7
2014-Sep-01 16:30N 29°60' W 032°18'0 0.0 28.7
2014-Sep-01 16:00N 29°60' W 032°18'0 0.0 28.8
2014-Sep-01 15:45N 29°60' W 032°18'1 0.4 28.6
2014-Sep-01 13:15N 30°00' W 032°19'1 0.7 28.1
2014-Sep-01 11:45N 30°01' W 032°19'2 1.7 27.7
2014-Sep-01 10:45N 29°60' W 032°20'0 0.0 27.5
2014-Sep-01 08:45N 29°60' W 032°20'0 1.8 27.4
2014-Sep-01 08:30N 29°60' W 032°20'1 0.4 27.4
2014-Sep-01 07:00N 29°60' W 032°19'1 4.3 27.4
2014-Sep-01 06:45N 29°59' W 032°20'0 0.0 27.4
2014-Sep-01 05:15N 29°59' W 032°20'1 1.0 27.5
2014-Sep-01 04:30N 29°59' W 032°19'0 0.0 27.6
2014-Sep-01 03:00N 29°59' W 032°19'1 3.1 27.7
2014-Sep-01 02:45N 29°58' W 032°18'0 0.0 27.7
2014-Sep-01 00:15N 29°58' W 032°18'0 0.0 27.9
2014-Sep-01 00:00N 29°58' W 032°18'1 1.2 27.9
2014-Aug-31 23:15N 29°59' W 032°17'1 1.1 27.9
2014-Aug-31 22:30N 29°60' W 032°17'0 0.0 27.9
2014-Aug-31 22:15N 29°60' W 032°17'1 0.4 28.0
2014-Aug-31 20:15N 30°00' W 032°17'1 3.1 28.2
2014-Aug-31 20:00N 29°60' W 032°17'1 3.1 28.3
2014-Aug-31 19:45N 30°00' W 032°17'0 0.0 28.3
2014-Aug-31 18:45N 30°00' W 032°17'0 0.2 28.4
2014-Aug-31 18:30N 30°00' W 032°17'0 0.0 28.5
2014-Aug-31 18:15N 30°00' W 032°17'0 0.3 28.5
2014-Aug-31 16:45N 30°01' W 032°17'0 0.0 28.3
2014-Aug-31 16:15N 30°01' W 032°17'0 0.0 28.3
2014-Aug-31 16:00N 30°01' W 032°17'1 0.6 28.2
2014-Aug-31 14:30N 30°01' W 032°18'0 0.1 28.1
2014-Aug-31 13:00N 30°01' W 032°19'0 0.0 27.9
2014-Aug-31 12:45N 30°01' W 032°19'0 0.5 27.9
2014-Aug-31 12:00N 30°01' W 032°18'1 0.9 27.7
2014-Aug-31 11:15N 30°00' W 032°19'0 0.0 27.6
2014-Aug-31 09:15N 30°00' W 032°19'0 1.3 27.5
2014-Aug-31 09:00N 29°60' W 032°19'0 0.0 27.5
2014-Aug-31 08:45N 29°60' W 032°19'0 0.0 27.5
2014-Aug-31 07:30N 29°60' W 032°19'0 0.3 27.6
2014-Aug-31 07:15N 29°60' W 032°19'1 3.4 27.6
2014-Aug-31 07:00N 29°59' W 032°18'0 0.0 27.6
2014-Aug-31 05:30N 29°59' W 032°18'0 0.0 27.8
2014-Aug-31 05:15N 29°59' W 032°18'1 2.3 27.8
2014-Aug-31 04:45N 29°59' W 032°17'0 0.0 27.8
2014-Aug-31 03:00N 29°59' W 032°17'0 0.0 28.1
2014-Aug-31 00:30N 29°59' W 032°17'0 0.0 28.4
2014-Aug-31 00:15N 29°59' W 032°17'1 2.5 28.4
2014-Aug-30 23:45N 29°59' W 032°16'1 2.4 28.5
2014-Aug-30 23:30N 29°60' W 032°15'1 1.2 28.6
2014-Aug-30 22:45N 30°01' W 032°15'1 0.3 28.7
2014-Aug-30 20:30N 30°01' W 032°15'0 0.0 28.9
2014-Aug-30 20:15N 30°01' W 032°15'0 0.3 29.0
2014-Aug-30 19:00N 30°01' W 032°15'0 0.0 29.3
2014-Aug-30 18:45N 30°01' W 032°15'0 0.0 29.4
2014-Aug-30 18:30N 30°01' W 032°15'0 0.4 29.4
2014-Aug-30 17:15N 30°01' W 032°16'1 3.1 29.4
2014-Aug-30 17:00N 30°01' W 032°17'1 3.1 29.4
2014-Aug-30 16:45N 30°01' W 032°16'1 1.6 29.4
2014-Aug-30 16:15N 30°01' W 032°17'0 0.1 29.5
2014-Aug-30 14:45N 30°01' W 032°17'0 0.0 29.0
2014-Aug-30 14:30N 30°01' W 032°17'1 0.4 28.8
2014-Aug-30 13:00N 30°01' W 032°16'0 0.3 27.8
2014-Aug-30 12:30N 30°01' W 032°16'1 1.1 27.6
2014-Aug-30 11:30N 30°00' W 032°15'0 0.0 27.2
2014-Aug-30 08:00N 30°00' W 032°15'0 0.0 27.2
2014-Aug-30 07:45N 30°00' W 032°15'1 1.7 27.2
2014-Aug-30 07:15N 29°59' W 032°15'0 0.0 27.2
2014-Aug-30 06:30N 29°59' W 032°15'0 0.0 27.3
2014-Aug-30 06:15N 29°59' W 032°15'1 2.3 27.4
2014-Aug-30 06:00N 29°60' W 032°15'0 0.0 27.4
2014-Aug-30 05:30N 29°60' W 032°15'0 0.0 27.4
2014-Aug-30 05:00N 29°60' W 032°15'2 6.8 27.4
2014-Aug-30 04:45N 29°59' W 032°13'0 0.0 27.4
2014-Aug-30 03:15N 29°59' W 032°13'0 0.0 27.6
2014-Aug-30 00:00N 29°59' W 032°13'0 0.0 27.9
2014-Aug-29 23:15N 29°59' W 032°13'1 4.1 27.9
2014-Aug-29 23:00N 29°60' W 032°12'0 1.0 27.9
2014-Aug-29 22:30N 30°00' W 032°12'0 0.0 27.9
2014-Aug-29 22:15N 30°00' W 032°12'0 0.0 27.9
2014-Aug-29 20:45N 30°00' W 032°12'0 0.1 28.1
2014-Aug-29 19:30N 30°00' W 032°13'0 0.3 28.3
2014-Aug-29 19:15N 30°00' W 032°13'1 1.5 28.3
2014-Aug-29 18:45N 30°01' W 032°13'0 0.0 28.3
2014-Aug-29 17:30N 30°01' W 032°13'0 0.0 28.5
2014-Aug-29 17:00N 30°01' W 032°13'0 0.4 28.4
2014-Aug-29 16:30N 30°01' W 032°13'1 0.6 28.4
2014-Aug-29 14:45N 30°01' W 032°15'1 0.7 28.2
2014-Aug-29 12:45N 29°60' W 032°15'0 0.0 27.5
2014-Aug-29 12:00N 29°60' W 032°15'0 0.0 27.3
2014-Aug-29 11:45N 29°60' W 032°15'0 0.0 27.2
2014-Aug-29 11:00N 29°60' W 032°15'0 0.0 27.0
2014-Aug-29 08:45N 29°60' W 032°15'1 0.8 26.9
2014-Aug-29 08:00N 29°60' W 032°15'0 0.4 27.0
2014-Aug-29 07:30N 29°60' W 032°15'0 1.2 27.0
2014-Aug-29 07:15N 29°60' W 032°14'0 0.0 27.0
2014-Aug-29 07:00N 29°60' W 032°14'0 0.8 27.0
2014-Aug-29 06:30N 29°60' W 032°15'0 0.0 27.1
2014-Aug-29 06:15N 29°60' W 032°15'0 0.0 27.1
2014-Aug-29 05:45N 29°60' W 032°15'0 0.0 27.1
2014-Aug-29 05:15N 29°60' W 032°15'1 2.2 27.1
2014-Aug-29 05:00N 29°59' W 032°15'1 0.8 27.1
2014-Aug-29 03:30N 29°58' W 032°14'0 0.0 27.2
2014-Aug-29 03:15N 29°58' W 032°14'0 0.0 27.2
2014-Aug-28 23:30N 29°58' W 032°13'1 1.1 27.4
2014-Aug-28 22:45N 29°59' W 032°13'0 0.0 27.4
2014-Aug-28 22:30N 29°59' W 032°13'1 1.9 27.4
2014-Aug-28 21:45N 30°00' W 032°12'1 0.5 27.5
2014-Aug-28 19:45N 30°01' W 032°13'0 0.0 27.9
2014-Aug-28 19:00N 30°01' W 032°13'0 0.0 28.1
2014-Aug-28 18:00N 30°01' W 032°13'0 0.2 28.4
2014-Aug-28 17:30N 30°01' W 032°13'0 1.8 28.4
2014-Aug-28 17:15N 30°01' W 032°13'0 0.4 28.3
2014-Aug-28 16:45N 30°01' W 032°13'0 0.0 28.3
2014-Aug-28 16:30N 30°01' W 032°13'1 0.8 28.2
2014-Aug-28 15:00N 30°01' W 032°15'0 0.1 28.2
2014-Aug-28 13:15N 30°01' W 032°14'0 0.5 28.1
2014-Aug-28 12:15N 30°01' W 032°14'0 0.0 27.7
2014-Aug-28 12:00N 30°01' W 032°14'1 1.2 27.5
2014-Aug-28 11:30N 30°01' W 032°14'0 0.0 27.3
2014-Aug-28 11:15N 30°01' W 032°14'1 2.0 27.3
2014-Aug-28 10:30N 30°00' W 032°15'0 0.0 27.2
2014-Aug-28 09:15N 30°00' W 032°15'0 0.0 27.1
2014-Aug-28 09:00N 30°00' W 032°15'0 1.0 27.1
2014-Aug-28 08:30N 30°00' W 032°15'0 0.0 27.1
2014-Aug-28 07:45N 30°00' W 032°15'0 1.2 27.1
2014-Aug-28 07:30N 30°00' W 032°15'0 0.8 27.1
2014-Aug-28 07:15N 30°00' W 032°15'0 0.4 27.2
2014-Aug-28 06:45N 30°00' W 032°15'0 0.5 27.2
2014-Aug-28 06:00N 29°60' W 032°15'1 0.7 27.2
2014-Aug-28 05:15N 29°59' W 032°15'0 0.1 27.2
2014-Aug-28 03:45N 29°60' W 032°15'2 8.6 27.2
2014-Aug-28 03:30N 29°58' W 032°14'0 0.0 27.2
2014-Aug-27 23:45N 29°58' W 032°14'1 1.9 27.3
2014-Aug-27 23:00N 29°58' W 032°12'1 1.5 27.3
2014-Aug-27 22:15N 29°59' W 032°12'0 0.0 27.3
2014-Aug-27 22:00N 29°59' W 032°12'1 0.5 27.4
2014-Aug-27 20:15N 29°60' W 032°12'0 0.0 27.6
2014-Aug-27 19:15N 29°60' W 032°12'0 0.0 27.8
2014-Aug-27 18:30N 29°60' W 032°12'0 0.1 27.7
2014-Aug-27 17:30N 29°60' W 032°12'1 1.0 27.6
2014-Aug-27 17:00N 30°00' W 032°12'0 0.0 27.6
2014-Aug-27 16:45N 30°00' W 032°12'1 0.6 27.6
2014-Aug-27 15:15N 29°60' W 032°12'0 0.0 27.3
2014-Aug-27 15:00N 29°60' W 032°12'1 0.5 27.3
2014-Aug-27 12:30N 29°59' W 032°13'1 0.7 26.9
2014-Aug-27 11:45N 29°58' W 032°13'1 1.1 26.8
2014-Aug-27 11:00N 29°58' W 032°12'0 0.0 26.7
2014-Aug-27 10:45N 29°58' W 032°12'0 0.0 26.7
2014-Aug-27 08:00N 29°58' W 032°12'0 0.9 26.5
2014-Aug-27 07:45N 29°58' W 032°12'0 0.0 26.5
2014-Aug-27 07:15N 29°58' W 032°12'0 0.5 26.5
2014-Aug-27 06:15N 29°58' W 032°11'0 1.9 26.5
2014-Aug-27 06:00N 29°58' W 032°11'0 0.1 26.5
2014-Aug-27 05:30N 29°58' W 032°11'0 0.0 26.6
2014-Aug-27 04:00N 29°58' W 032°11'0 1.1 26.6
2014-Aug-27 03:45N 29°58' W 032°11'2 0.5 26.6
2014-Aug-27 00:15N 29°57' W 032°09'0 0.0 26.7
2014-Aug-27 00:00N 29°57' W 032°09'1 1.4 26.7
2014-Aug-26 23:30N 29°57' W 032°08'0 0.6 26.7
2014-Aug-26 23:15N 29°57' W 032°08'1 1.8 26.7
2014-Aug-26 22:30N 29°58' W 032°07'1 0.9 26.7
2014-Aug-26 20:45N 29°59' W 032°05'0 0.0 26.8
2014-Aug-26 19:15N 29°59' W 032°05'1 3.2 27.1
2014-Aug-26 19:00N 29°59' W 032°06'0 0.0 27.1
2014-Aug-26 18:45N 29°59' W 032°06'0 0.0 27.1
2014-Aug-26 17:45N 29°59' W 032°06'0 0.0 27.2
2014-Aug-26 17:30N 29°59' W 032°06'1 0.3 27.2
2014-Aug-26 15:30N 29°60' W 032°06'0 0.0 27.0
2014-Aug-26 15:15N 29°60' W 032°06'0 0.1 27.0
2014-Aug-26 12:45N 29°60' W 032°06'0 0.0 26.5
2014-Aug-26 12:15N 29°60' W 032°06'0 1.1 26.5
2014-Aug-26 12:00N 29°60' W 032°05'1 1.1 26.4
2014-Aug-26 11:15N 29°59' W 032°05'0 0.0 26.4
2014-Aug-26 11:00N 29°59' W 032°05'0 0.0 26.4
2014-Aug-26 08:30N 29°59' W 032°05'1 0.7 26.4
2014-Aug-26 07:45N 29°60' W 032°04'0 1.4 26.4
2014-Aug-26 07:30N 30°00' W 032°04'0 0.0 26.4
2014-Aug-26 07:00N 30°00' W 032°04'0 0.0 26.4
2014-Aug-26 06:45N 30°00' W 032°04'0 1.8 26.4
2014-Aug-26 06:30N 30°00' W 032°04'1 3.3 26.4
2014-Aug-26 06:15N 30°01' W 032°03'0 0.0 26.4
2014-Aug-26 05:45N 30°01' W 032°03'0 0.0 26.4
2014-Aug-26 05:30N 30°01' W 032°03'0 0.2 26.4
2014-Aug-26 04:00N 30°01' W 032°02'0 0.0 26.5
2014-Aug-26 00:30N 30°01' W 032°02'0 0.3 26.6
2014-Aug-25 23:45N 30°01' W 032°02'0 0.0 26.6
2014-Aug-25 23:00N 30°01' W 032°02'1 5.2 26.7
2014-Aug-25 22:45N 30°01' W 032°01'0 0.0 26.7
2014-Aug-25 22:00N 30°01' W 032°01'1 0.3 26.7
2014-Aug-25 19:45N 30°01' W 031°60'0 0.0 26.9
2014-Aug-25 19:30N 30°01' W 031°60'0 0.0 26.9
2014-Aug-25 19:15N 30°01' W 031°60'0 0.0 26.9
2014-Aug-25 18:00N 30°01' W 031°60'0 0.2 26.9
2014-Aug-25 17:45N 30°01' W 031°60'0 0.0 26.9
2014-Aug-25 17:30N 30°01' W 031°60'0 1.4 26.9
2014-Aug-25 17:15N 30°02' W 031°60'0 0.0 26.9
2014-Aug-25 16:15N 30°02' W 031°60'0 0.0 26.9
2014-Aug-25 15:30N 30°02' W 031°60'1 0.4 26.8
2014-Aug-25 12:30N 30°01' W 031°58'2 1.7 26.4
2014-Aug-25 11:30N 29°59' W 031°58'0 0.0 26.4
2014-Aug-25 09:00N 29°59' W 031°58'1 1.2 26.4
2014-Aug-25 08:15N 30°00' W 031°57'0 0.0 26.3
2014-Aug-25 08:00N 30°00' W 031°57'0 0.0 26.4
2014-Aug-25 07:30N 30°00' W 031°57'0 0.0 26.4
2014-Aug-25 07:15N 30°00' W 031°57'1 2.0 26.4
2014-Aug-25 06:30N 30°01' W 031°56'0 0.0 26.4
2014-Aug-25 06:15N 30°01' W 031°56'0 0.3 26.4
2014-Aug-25 06:00N 30°01' W 031°56'0 0.0 26.4
2014-Aug-25 05:45N 30°01' W 031°56'1 0.9 26.4
2014-Aug-25 04:15N 30°01' W 031°54'0 0.0 26.4
2014-Aug-25 04:00N 30°01' W 031°54'0 0.0 26.4
2014-Aug-25 00:45N 30°01' W 031°54'0 0.0 26.5
2014-Aug-25 00:00N 30°01' W 031°54'0 0.0 26.5
2014-Aug-24 23:15N 30°01' W 031°54'0 0.0 26.5
2014-Aug-24 23:00N 30°01' W 031°54'0 0.0 26.5
2014-Aug-24 22:30N 30°01' W 031°54'0 0.0 26.5
2014-Aug-24 21:45N 30°01' W 031°54'0 1.2 26.5
2014-Aug-24 21:30N 30°01' W 031°54'0 0.0 26.5
2014-Aug-24 20:00N 30°01' W 031°54'0 0.0 26.6
2014-Aug-24 19:45N 30°01' W 031°54'0 0.0 26.6
2014-Aug-24 18:15N 30°01' W 031°54'0 0.5 26.7
2014-Aug-24 18:00N 30°01' W 031°54'0 0.3 26.7
2014-Aug-24 16:30N 30°02' W 031°53'0 0.0 26.8
2014-Aug-24 16:15N 30°02' W 031°53'0 0.0 26.8
2014-Aug-24 15:45N 30°02' W 031°53'0 0.0 26.7
2014-Aug-24 15:30N 30°02' W 031°53'0 0.1 26.7
2014-Aug-24 12:45N 30°01' W 031°53'1 1.5 26.6
2014-Aug-24 12:00N 30°00' W 031°53'0 0.0 26.5
2014-Aug-24 11:45N 30°00' W 031°53'0 0.0 26.5
2014-Aug-24 11:00N 30°00' W 031°53'1 0.8 26.5
2014-Aug-24 10:15N 30°00' W 031°52'0 0.2 26.5
2014-Aug-24 08:15N 30°00' W 031°52'0 1.5 26.5
2014-Aug-24 08:00N 30°00' W 031°52'0 0.0 26.5
2014-Aug-24 07:45N 30°00' W 031°52'1 1.1 26.5
2014-Aug-24 06:45N 30°01' W 031°51'0 0.0 26.5
2014-Aug-24 06:30N 30°01' W 031°51'0 0.0 26.5
2014-Aug-24 05:00N 30°01' W 031°51'0 0.2 26.5
2014-Aug-24 04:30N 30°01' W 031°51'1 3.9 26.5
2014-Aug-24 04:15N 30°01' W 031°50'0 0.0 26.5
2014-Aug-24 02:45N 30°01' W 031°50'0 0.0 26.5
2014-Aug-24 02:30N 30°01' W 031°50'0 0.1 26.5
2014-Aug-23 22:45N 30°01' W 031°50'   26.6

Dump ship's entire track history